sensor_id;sensor_type;location;lat;lon;timestamp;pressure;altitude;pressure_sealevel;temperature;humidity
56992;BME280;42885;49.754;18.636;2022-11-20T00:02:17;97938.89;;;0.29;100.00
56992;BME280;42885;49.754;18.636;2022-11-20T00:04:47;97945.19;;;0.35;100.00
56992;BME280;42885;49.754;18.636;2022-11-20T00:07:18;97948.39;;;0.26;100.00
56992;BME280;42885;49.754;18.636;2022-11-20T00:09:49;97949.92;;;0.16;100.00
56992;BME280;42885;49.754;18.636;2022-11-20T00:12:20;97945.94;;;0.40;100.00
56992;BME280;42885;49.754;18.636;2022-11-20T00:14:51;97952.77;;;0.41;100.00
56992;BME280;42885;49.754;18.636;2022-11-20T00:17:23;97954.94;;;0.22;100.00
56992;BME280;42885;49.754;18.636;2022-11-20T00:19:54;97945.66;;;0.15;100.00
56992;BME280;42885;49.754;18.636;2022-11-20T00:22:25;97938.50;;;0.27;100.00
56992;BME280;42885;49.754;18.636;2022-11-20T00:24:56;97937.70;;;0.25;100.00
56992;BME280;42885;49.754;18.636;2022-11-20T00:27:27;97938.32;;;0.17;100.00
56992;BME280;42885;49.754;18.636;2022-11-20T00:29:58;97932.53;;;0.07;100.00
56992;BME280;42885;49.754;18.636;2022-11-20T00:32:29;97926.27;;;0.01;100.00
56992;BME280;42885;49.754;18.636;2022-11-20T00:35:01;97936.33;;;-0.27;100.00
56992;BME280;42885;49.754;18.636;2022-11-20T00:37:33;97935.41;;;-0.46;100.00
56992;BME280;42885;49.754;18.636;2022-11-20T00:40:05;97924.59;;;-0.21;100.00
56992;BME280;42885;49.754;18.636;2022-11-20T00:42:36;97935.41;;;-0.05;100.00
56992;BME280;42885;49.754;18.636;2022-11-20T00:45:07;97936.80;;;-0.10;100.00
56992;BME280;42885;49.754;18.636;2022-11-20T00:47:38;97929.98;;;-0.12;100.00
56992;BME280;42885;49.754;18.636;2022-11-20T00:50:09;97933.09;;;-0.18;100.00
56992;BME280;42885;49.754;18.636;2022-11-20T00:52:40;97933.20;;;-0.22;100.00
56992;BME280;42885;49.754;18.636;2022-11-20T00:55:11;97927.22;;;-0.23;100.00
56992;BME280;42885;49.754;18.636;2022-11-20T00:57:42;97922.51;;;-0.23;100.00
56992;BME280;42885;49.754;18.636;2022-11-20T01:00:16;97923.12;;;-0.32;100.00
56992;BME280;42885;49.754;18.636;2022-11-20T01:02:47;97910.87;;;-0.40;100.00
56992;BME280;42885;49.754;18.636;2022-11-20T01:05:17;97913.73;;;-0.34;100.00
56992;BME280;42885;49.754;18.636;2022-11-20T01:07:48;97908.08;;;-0.49;100.00
56992;BME280;42885;49.754;18.636;2022-11-20T01:10:19;97911.48;;;-0.70;100.00
56992;BME280;42885;49.754;18.636;2022-11-20T01:12:50;97916.80;;;-0.77;100.00
56992;BME280;42885;49.754;18.636;2022-11-20T01:15:23;97909.38;;;-0.91;100.00
56992;BME280;42885;49.754;18.636;2022-11-20T01:17:54;97908.73;;;-0.81;100.00
56992;BME280;42885;49.754;18.636;2022-11-20T01:20:25;97911.84;;;-0.87;100.00
56992;BME280;42885;49.754;18.636;2022-11-20T01:22:56;97909.62;;;-0.84;100.00
56992;BME280;42885;49.754;18.636;2022-11-20T01:25:27;97910.32;;;-0.76;100.00
56992;BME280;42885;49.754;18.636;2022-11-20T01:27:57;97912.06;;;-0.76;100.00
56992;BME280;42885;49.754;18.636;2022-11-20T01:30:29;97909.73;;;-0.67;100.00
56992;BME280;42885;49.754;18.636;2022-11-20T01:33:00;97909.97;;;-0.78;100.00
56992;BME280;42885;49.754;18.636;2022-11-20T01:35:30;97899.42;;;-0.87;100.00
56992;BME280;42885;49.754;18.636;2022-11-20T01:38:01;97901.28;;;-0.94;100.00
56992;BME280;42885;49.754;18.636;2022-11-20T01:40:32;97897.28;;;-0.88;100.00
56992;BME280;42885;49.754;18.636;2022-11-20T01:43:20;97893.52;;;-0.92;100.00
56992;BME280;42885;49.754;18.636;2022-11-20T01:45:59;97895.63;;;-1.12;100.00
56992;BME280;42885;49.754;18.636;2022-11-20T01:48:36;97896.55;;;-0.93;100.00
56992;BME280;42885;49.754;18.636;2022-11-20T01:51:17;97895.77;;;-0.97;100.00
56992;BME280;42885;49.754;18.636;2022-11-20T01:53:40;97893.62;;;-0.97;100.00
56992;BME280;42885;49.754;18.636;2022-11-20T01:56:12;97895.64;;;-0.69;100.00
56992;BME280;42885;49.754;18.636;2022-11-20T01:58:49;97897.77;;;-0.90;100.00
56992;BME280;42885;49.754;18.636;2022-11-20T02:01:20;97897.37;;;-0.92;100.00
56992;BME280;42885;49.754;18.636;2022-11-20T02:03:52;97899.59;;;-1.18;100.00
56992;BME280;42885;49.754;18.636;2022-11-20T02:06:26;97901.80;;;-1.22;100.00
56992;BME280;42885;49.754;18.636;2022-11-20T02:08:58;97900.42;;;-1.17;100.00
56992;BME280;42885;49.754;18.636;2022-11-20T02:11:30;97903.42;;;-1.16;100.00
56992;BME280;42885;49.754;18.636;2022-11-20T02:14:02;97907.23;;;-1.15;100.00
56992;BME280;42885;49.754;18.636;2022-11-20T02:16:39;97906.89;;;-1.19;100.00
56992;BME280;42885;49.754;18.636;2022-11-20T02:19:28;97912.91;;;-1.20;100.00
56992;BME280;42885;49.754;18.636;2022-11-20T02:22:05;97916.11;;;-1.08;100.00
56992;BME280;42885;49.754;18.636;2022-11-20T02:24:36;97917.39;;;-1.08;100.00
56992;BME280;42885;49.754;18.636;2022-11-20T02:27:13;97917.69;;;-1.26;100.00
56992;BME280;42885;49.754;18.636;2022-11-20T02:29:58;97916.19;;;-1.37;100.00
56992;BME280;42885;49.754;18.636;2022-11-20T02:32:32;97913.19;;;-1.35;100.00
56992;BME280;42885;49.754;18.636;2022-11-20T02:35:08;97910.78;;;-1.45;100.00
56992;BME280;42885;49.754;18.636;2022-11-20T02:37:40;97921.27;;;-1.33;100.00
56992;BME280;42885;49.754;18.636;2022-11-20T02:40:11;97919.92;;;-1.30;100.00
56992;BME280;42885;49.754;18.636;2022-11-20T02:42:42;97923.88;;;-1.36;100.00
56992;BME280;42885;49.754;18.636;2022-11-20T02:45:13;97923.30;;;-1.28;100.00
56992;BME280;42885;49.754;18.636;2022-11-20T02:47:44;97922.03;;;-1.29;100.00
56992;BME280;42885;49.754;18.636;2022-11-20T02:50:15;97914.14;;;-1.41;100.00
56992;BME280;42885;49.754;18.636;2022-11-20T02:52:46;97922.30;;;-1.19;100.00
56992;BME280;42885;49.754;18.636;2022-11-20T02:55:17;97924.59;;;-1.03;100.00
56992;BME280;42885;49.754;18.636;2022-11-20T02:57:48;97921.13;;;-1.25;100.00
56992;BME280;42885;49.754;18.636;2022-11-20T03:00:19;97921.59;;;-1.27;100.00
56992;BME280;42885;49.754;18.636;2022-11-20T03:02:50;97922.47;;;-1.28;100.00
56992;BME280;42885;49.754;18.636;2022-11-20T03:05:22;97918.17;;;-1.28;100.00
56992;BME280;42885;49.754;18.636;2022-11-20T03:07:53;97916.77;;;-1.20;100.00
56992;BME280;42885;49.754;18.636;2022-11-20T03:10:24;97913.76;;;-1.44;100.00
56992;BME280;42885;49.754;18.636;2022-11-20T03:12:56;97917.25;;;-1.74;100.00
56992;BME280;42885;49.754;18.636;2022-11-20T03:15:26;97916.82;;;-1.73;100.00
56992;BME280;42885;49.754;18.636;2022-11-20T03:17:57;97919.39;;;-1.73;100.00
56992;BME280;42885;49.754;18.636;2022-11-20T03:20:28;97919.06;;;-1.30;100.00
56992;BME280;42885;49.754;18.636;2022-11-20T03:23:00;97920.37;;;-1.56;100.00
56992;BME280;42885;49.754;18.636;2022-11-20T03:25:31;97927.65;;;-1.56;100.00
56992;BME280;42885;49.754;18.636;2022-11-20T03:28:02;97931.94;;;-1.09;100.00
56992;BME280;42885;49.754;18.636;2022-11-20T03:30:33;97932.30;;;-1.03;100.00
56992;BME280;42885;49.754;18.636;2022-11-20T03:33:05;97935.76;;;-1.06;100.00
56992;BME280;42885;49.754;18.636;2022-11-20T03:35:36;97932.52;;;-0.93;100.00
56992;BME280;42885;49.754;18.636;2022-11-20T03:38:07;97932.95;;;-0.72;100.00
56992;BME280;42885;49.754;18.636;2022-11-20T03:40:38;97933.62;;;-0.62;100.00
56992;BME280;42885;49.754;18.636;2022-11-20T03:43:10;97924.94;;;-0.78;100.00
56992;BME280;42885;49.754;18.636;2022-11-20T03:45:40;97924.10;;;-0.78;100.00
56992;BME280;42885;49.754;18.636;2022-11-20T03:48:12;97909.27;;;-1.08;100.00
56992;BME280;42885;49.754;18.636;2022-11-20T03:50:43;97916.52;;;-1.07;100.00
56992;BME280;42885;49.754;18.636;2022-11-20T03:53:14;97907.23;;;-0.92;100.00
56992;BME280;42885;49.754;18.636;2022-11-20T03:55:50;97902.00;;;-0.87;100.00
56992;BME280;42885;49.754;18.636;2022-11-20T03:58:18;97901.97;;;-0.86;100.00
56992;BME280;42885;49.754;18.636;2022-11-20T04:00:51;97905.25;;;-0.79;100.00
56992;BME280;42885;49.754;18.636;2022-11-20T04:03:22;97912.55;;;-0.59;100.00
56992;BME280;42885;49.754;18.636;2022-11-20T04:05:53;97909.02;;;-0.74;100.00
56992;BME280;42885;49.754;18.636;2022-11-20T04:08:24;97906.84;;;-0.73;100.00
56992;BME280;42885;49.754;18.636;2022-11-20T04:10:55;97907.90;;;-0.82;100.00
56992;BME280;42885;49.754;18.636;2022-11-20T04:13:26;97903.38;;;-0.92;100.00
56992;BME280;42885;49.754;18.636;2022-11-20T04:15:58;97912.06;;;-1.22;100.00
56992;BME280;42885;49.754;18.636;2022-11-20T04:18:29;97912.45;;;-1.19;100.00
56992;BME280;42885;49.754;18.636;2022-11-20T04:21:00;97909.30;;;-1.11;100.00
56992;BME280;42885;49.754;18.636;2022-11-20T04:23:32;97914.23;;;-1.00;100.00
56992;BME280;42885;49.754;18.636;2022-11-20T04:26:08;97911.19;;;-0.75;100.00
56992;BME280;42885;49.754;18.636;2022-11-20T04:28:39;97913.96;;;-0.65;100.00
56992;BME280;42885;49.754;18.636;2022-11-20T04:31:16;97912.48;;;-0.56;100.00
56992;BME280;42885;49.754;18.636;2022-11-20T04:33:47;97918.58;;;-0.60;100.00
56992;BME280;42885;49.754;18.636;2022-11-20T04:36:21;97908.17;;;-0.53;100.00
56992;BME280;42885;49.754;18.636;2022-11-20T04:39:03;97911.83;;;-0.44;100.00
56992;BME280;42885;49.754;18.636;2022-11-20T04:41:31;97914.02;;;-0.47;100.00
56992;BME280;42885;49.754;18.636;2022-11-20T04:44:04;97907.97;;;-0.44;100.00
56992;BME280;42885;49.754;18.636;2022-11-20T04:46:38;97902.67;;;-0.38;100.00
56992;BME280;42885;49.754;18.636;2022-11-20T04:49:11;97896.25;;;-0.38;100.00
56992;BME280;42885;49.754;18.636;2022-11-20T04:51:42;97895.41;;;-0.38;100.00
56992;BME280;42885;49.754;18.636;2022-11-20T04:54:13;97901.19;;;-0.68;100.00
56992;BME280;42885;49.754;18.636;2022-11-20T04:56:43;97892.42;;;-0.59;100.00
56992;BME280;42885;49.754;18.636;2022-11-20T04:59:14;97890.98;;;-0.51;100.00
56992;BME280;42885;49.754;18.636;2022-11-20T05:01:45;97889.34;;;-0.56;100.00
56992;BME280;42885;49.754;18.636;2022-11-20T05:04:16;97880.58;;;-0.45;100.00
56992;BME280;42885;49.754;18.636;2022-11-20T05:06:49;97876.06;;;-0.55;100.00
56992;BME280;42885;49.754;18.636;2022-11-20T05:09:20;97877.73;;;-0.52;100.00
56992;BME280;42885;49.754;18.636;2022-11-20T05:11:51;97866.39;;;-0.63;100.00
56992;BME280;42885;49.754;18.636;2022-11-20T05:14:22;97864.33;;;-0.67;100.00
56992;BME280;42885;49.754;18.636;2022-11-20T05:16:53;97865.42;;;-0.59;100.00
56992;BME280;42885;49.754;18.636;2022-11-20T05:19:24;97864.73;;;-0.66;100.00
56992;BME280;42885;49.754;18.636;2022-11-20T05:21:55;97860.86;;;-0.46;100.00
56992;BME280;42885;49.754;18.636;2022-11-20T05:24:26;97870.11;;;-0.37;100.00
56992;BME280;42885;49.754;18.636;2022-11-20T05:26:57;97862.37;;;-0.36;100.00
56992;BME280;42885;49.754;18.636;2022-11-20T05:29:28;97864.20;;;-0.61;100.00
56992;BME280;42885;49.754;18.636;2022-11-20T05:31:58;97868.27;;;-0.52;100.00
56992;BME280;42885;49.754;18.636;2022-11-20T05:34:29;97866.54;;;-0.50;100.00
56992;BME280;42885;49.754;18.636;2022-11-20T05:37:00;97855.80;;;-0.49;100.00
56992;BME280;42885;49.754;18.636;2022-11-20T05:39:31;97858.77;;;-0.48;100.00
56992;BME280;42885;49.754;18.636;2022-11-20T05:42:02;97845.30;;;-0.40;100.00
56992;BME280;42885;49.754;18.636;2022-11-20T05:44:51;97848.67;;;-0.38;100.00
56992;BME280;42885;49.754;18.636;2022-11-20T05:47:21;97862.41;;;-0.39;100.00
56992;BME280;42885;49.754;18.636;2022-11-20T05:49:53;97861.34;;;-0.29;100.00
56992;BME280;42885;49.754;18.636;2022-11-20T05:52:24;97855.83;;;-0.31;100.00
56992;BME280;42885;49.754;18.636;2022-11-20T05:54:55;97847.39;;;-0.18;100.00
56992;BME280;42885;49.754;18.636;2022-11-20T05:57:26;97846.94;;;-0.36;100.00
56992;BME280;42885;49.754;18.636;2022-11-20T05:59:57;97849.80;;;-0.30;100.00
56992;BME280;42885;49.754;18.636;2022-11-20T06:02:28;97856.77;;;-0.96;100.00
56992;BME280;42885;49.754;18.636;2022-11-20T06:04:59;97851.11;;;-0.91;100.00
56992;BME280;42885;49.754;18.636;2022-11-20T06:07:30;97847.12;;;-0.83;100.00
56992;BME280;42885;49.754;18.636;2022-11-20T06:10:00;97838.13;;;-0.83;100.00
56992;BME280;42885;49.754;18.636;2022-11-20T06:12:32;97830.46;;;-0.86;100.00
56992;BME280;42885;49.754;18.636;2022-11-20T06:15:04;97828.11;;;-0.97;100.00
56992;BME280;42885;49.754;18.636;2022-11-20T06:17:35;97824.33;;;-1.00;100.00
56992;BME280;42885;49.754;18.636;2022-11-20T06:20:06;97826.72;;;-1.12;100.00
56992;BME280;42885;49.754;18.636;2022-11-20T06:22:37;97821.84;;;-1.03;100.00
56992;BME280;42885;49.754;18.636;2022-11-20T06:25:08;97825.88;;;-0.91;100.00
56992;BME280;42885;49.754;18.636;2022-11-20T06:27:39;97817.58;;;-0.65;100.00
56992;BME280;42885;49.754;18.636;2022-11-20T06:30:11;97817.87;;;-0.77;100.00
56992;BME280;42885;49.754;18.636;2022-11-20T06:32:42;97812.50;;;-0.66;100.00
56992;BME280;42885;49.754;18.636;2022-11-20T06:35:13;97815.68;;;-0.57;100.00
56992;BME280;42885;49.754;18.636;2022-11-20T06:37:44;97806.47;;;-0.47;100.00
56992;BME280;42885;49.754;18.636;2022-11-20T06:40:14;97808.80;;;-0.74;100.00
56992;BME280;42885;49.754;18.636;2022-11-20T06:42:45;97812.67;;;-0.95;100.00
56992;BME280;42885;49.754;18.636;2022-11-20T06:45:16;97809.47;;;-0.66;100.00
56992;BME280;42885;49.754;18.636;2022-11-20T06:47:48;97812.39;;;-0.44;100.00
56992;BME280;42885;49.754;18.636;2022-11-20T06:50:19;97812.58;;;-0.51;100.00
56992;BME280;42885;49.754;18.636;2022-11-20T06:52:50;97809.52;;;-0.49;100.00
56992;BME280;42885;49.754;18.636;2022-11-20T06:55:21;97804.00;;;-0.32;100.00
56992;BME280;42885;49.754;18.636;2022-11-20T06:57:52;97810.09;;;-0.18;100.00
56992;BME280;42885;49.754;18.636;2022-11-20T07:00:22;97827.89;;;0.08;100.00
56992;BME280;42885;49.754;18.636;2022-11-20T07:02:53;97821.39;;;-0.44;100.00
56992;BME280;42885;49.754;18.636;2022-11-20T07:05:24;97823.88;;;-0.59;100.00
56992;BME280;42885;49.754;18.636;2022-11-20T07:07:58;97831.83;;;-0.50;100.00
56992;BME280;42885;49.754;18.636;2022-11-20T07:10:29;97836.89;;;-0.47;100.00
56992;BME280;42885;49.754;18.636;2022-11-20T07:13:00;97817.23;;;-0.13;100.00
56992;BME280;42885;49.754;18.636;2022-11-20T07:15:31;97827.52;;;0.05;100.00
56992;BME280;42885;49.754;18.636;2022-11-20T07:18:04;97834.92;;;0.01;100.00
56992;BME280;42885;49.754;18.636;2022-11-20T07:20:35;97832.66;;;0.05;100.00
56992;BME280;42885;49.754;18.636;2022-11-20T07:23:05;97835.38;;;0.17;100.00
56992;BME280;42885;49.754;18.636;2022-11-20T07:25:36;97834.87;;;0.03;100.00
56992;BME280;42885;49.754;18.636;2022-11-20T07:28:07;97834.41;;;0.05;100.00
56992;BME280;42885;49.754;18.636;2022-11-20T07:30:40;97837.17;;;0.13;100.00
56992;BME280;42885;49.754;18.636;2022-11-20T07:33:15;97840.34;;;0.25;100.00
56992;BME280;42885;49.754;18.636;2022-11-20T07:35:44;97843.19;;;0.14;100.00
56992;BME280;42885;49.754;18.636;2022-11-20T07:38:15;97845.36;;;0.13;100.00
56992;BME280;42885;49.754;18.636;2022-11-20T07:40:46;97841.52;;;0.46;100.00
56992;BME280;42885;49.754;18.636;2022-11-20T07:43:17;97851.94;;;0.42;100.00
56992;BME280;42885;49.754;18.636;2022-11-20T07:45:48;97844.00;;;0.33;100.00
56992;BME280;42885;49.754;18.636;2022-11-20T07:48:18;97845.59;;;0.53;100.00
56992;BME280;42885;49.754;18.636;2022-11-20T07:50:52;97843.09;;;0.67;100.00
56992;BME280;42885;49.754;18.636;2022-11-20T07:53:22;97838.41;;;0.66;100.00
56992;BME280;42885;49.754;18.636;2022-11-20T07:55:53;97838.31;;;0.70;100.00
56992;BME280;42885;49.754;18.636;2022-11-20T07:58:24;97840.03;;;0.69;100.00
56992;BME280;42885;49.754;18.636;2022-11-20T08:00:55;97836.52;;;0.57;100.00
56992;BME280;42885;49.754;18.636;2022-11-20T08:03:26;97838.30;;;0.38;100.00
56992;BME280;42885;49.754;18.636;2022-11-20T08:06:00;97839.73;;;0.48;100.00
56992;BME280;42885;49.754;18.636;2022-11-20T08:08:32;97847.34;;;0.53;100.00
56992;BME280;42885;49.754;18.636;2022-11-20T08:11:03;97849.58;;;0.49;100.00
56992;BME280;42885;49.754;18.636;2022-11-20T08:13:52;97842.45;;;0.90;100.00
56992;BME280;42885;49.754;18.636;2022-11-20T08:16:43;97840.98;;;1.42;100.00
56992;BME280;42885;49.754;18.636;2022-11-20T08:19:16;97844.55;;;1.22;100.00
56992;BME280;42885;49.754;18.636;2022-11-20T08:21:47;97843.87;;;1.31;100.00
56992;BME280;42885;49.754;18.636;2022-11-20T08:24:19;97842.83;;;1.23;100.00
56992;BME280;42885;49.754;18.636;2022-11-20T08:26:50;97842.52;;;1.34;100.00
56992;BME280;42885;49.754;18.636;2022-11-20T08:29:21;97844.06;;;1.40;100.00
56992;BME280;42885;49.754;18.636;2022-11-20T08:31:52;97841.48;;;1.53;100.00
56992;BME280;42885;49.754;18.636;2022-11-20T08:34:25;97844.02;;;1.41;100.00
56992;BME280;42885;49.754;18.636;2022-11-20T08:36:56;97851.45;;;1.22;100.00
56992;BME280;42885;49.754;18.636;2022-11-20T08:39:27;97853.88;;;1.12;100.00
56992;BME280;42885;49.754;18.636;2022-11-20T08:41:57;97851.50;;;1.05;100.00
56992;BME280;42885;49.754;18.636;2022-11-20T08:44:28;97844.03;;;1.11;100.00
56992;BME280;42885;49.754;18.636;2022-11-20T08:47:00;97851.48;;;1.50;100.00
56992;BME280;42885;49.754;18.636;2022-11-20T08:49:31;97850.87;;;1.42;100.00
56992;BME280;42885;49.754;18.636;2022-11-20T08:52:02;97851.27;;;1.43;100.00
56992;BME280;42885;49.754;18.636;2022-11-20T08:54:34;97856.34;;;1.31;100.00
56992;BME280;42885;49.754;18.636;2022-11-20T08:57:05;97860.94;;;1.50;100.00
56992;BME280;42885;49.754;18.636;2022-11-20T08:59:35;97852.88;;;1.61;100.00
56992;BME280;42885;49.754;18.636;2022-11-20T09:02:07;97859.65;;;1.50;100.00
56992;BME280;42885;49.754;18.636;2022-11-20T09:04:38;97849.08;;;1.44;100.00
56992;BME280;42885;49.754;18.636;2022-11-20T09:07:09;97852.92;;;1.59;100.00
56992;BME280;42885;49.754;18.636;2022-11-20T09:09:40;97842.23;;;1.99;100.00
56992;BME280;42885;49.754;18.636;2022-11-20T09:12:10;97849.97;;;1.72;100.00
56992;BME280;42885;49.754;18.636;2022-11-20T09:14:41;97839.04;;;1.77;100.00
56992;BME280;42885;49.754;18.636;2022-11-20T09:17:12;97841.44;;;1.83;100.00
56992;BME280;42885;49.754;18.636;2022-11-20T09:19:44;97839.50;;;1.76;100.00
56992;BME280;42885;49.754;18.636;2022-11-20T09:22:16;97841.32;;;1.86;100.00
56992;BME280;42885;49.754;18.636;2022-11-20T09:24:47;97838.55;;;1.92;100.00
56992;BME280;42885;49.754;18.636;2022-11-20T09:27:18;97838.94;;;1.67;100.00
56992;BME280;42885;49.754;18.636;2022-11-20T09:29:53;97835.19;;;1.90;100.00
56992;BME280;42885;49.754;18.636;2022-11-20T09:32:23;97830.22;;;1.84;100.00
56992;BME280;42885;49.754;18.636;2022-11-20T09:34:54;97831.42;;;1.87;100.00
56992;BME280;42885;49.754;18.636;2022-11-20T09:37:25;97835.23;;;2.02;100.00
56992;BME280;42885;49.754;18.636;2022-11-20T09:39:56;97822.17;;;2.20;100.00
56992;BME280;42885;49.754;18.636;2022-11-20T09:43:27;97817.31;;;2.62;100.00
56992;BME280;42885;49.754;18.636;2022-11-20T09:45:50;97820.52;;;2.43;100.00
56992;BME280;42885;49.754;18.636;2022-11-20T09:54:00;97805.80;;;3.07;100.00
56992;BME280;42885;49.754;18.636;2022-11-20T09:56:29;97806.02;;;3.00;100.00
56992;BME280;42885;49.754;18.636;2022-11-20T09:59:03;97805.58;;;3.13;100.00
56992;BME280;42885;49.754;18.636;2022-11-20T10:01:36;97800.05;;;3.22;100.00
56992;BME280;42885;49.754;18.636;2022-11-20T10:04:18;97793.38;;;3.61;100.00
56992;BME280;42885;49.754;18.636;2022-11-20T10:07:04;97794.39;;;3.79;100.00
56992;BME280;42885;49.754;18.636;2022-11-20T10:09:38;97790.52;;;4.10;100.00
56992;BME280;42885;49.754;18.636;2022-11-20T10:12:24;97782.12;;;3.62;100.00
56992;BME280;42885;49.754;18.636;2022-11-20T10:20:56;97775.64;;;4.36;100.00
56992;BME280;42885;49.754;18.636;2022-11-20T10:23:37;97767.80;;;4.78;100.00
56992;BME280;42885;49.754;18.636;2022-11-20T10:29:16;97775.50;;;4.39;100.00
56992;BME280;42885;49.754;18.636;2022-11-20T10:31:56;97773.42;;;4.27;100.00
56992;BME280;42885;49.754;18.636;2022-11-20T10:34:52;97778.03;;;4.41;100.00
56992;BME280;42885;49.754;18.636;2022-11-20T10:37:25;97779.57;;;4.45;100.00
56992;BME280;42885;49.754;18.636;2022-11-20T10:40:05;97777.13;;;4.42;100.00
56992;BME280;42885;49.754;18.636;2022-11-20T10:42:41;97777.25;;;4.29;100.00
56992;BME280;42885;49.754;18.636;2022-11-20T10:45:31;97777.19;;;4.09;100.00
56992;BME280;42885;49.754;18.636;2022-11-20T10:48:07;97778.80;;;4.22;100.00
56992;BME280;42885;49.754;18.636;2022-11-20T10:50:36;97768.97;;;4.10;100.00
56992;BME280;42885;49.754;18.636;2022-11-20T10:53:31;97763.84;;;4.39;100.00
56992;BME280;42885;49.754;18.636;2022-11-20T10:56:16;97762.45;;;4.11;100.00
56992;BME280;42885;49.754;18.636;2022-11-20T10:58:36;97765.03;;;4.11;100.00
56992;BME280;42885;49.754;18.636;2022-11-20T11:01:11;97766.64;;;3.93;100.00
56992;BME280;42885;49.754;18.636;2022-11-20T11:03:38;97765.94;;;4.21;100.00
56992;BME280;42885;49.754;18.636;2022-11-20T11:06:42;97767.73;;;4.19;100.00
56992;BME280;42885;49.754;18.636;2022-11-20T11:09:19;97765.33;;;4.14;100.00
56992;BME280;42885;49.754;18.636;2022-11-20T11:11:44;97766.27;;;4.23;100.00
56992;BME280;42885;49.754;18.636;2022-11-20T11:14:16;97766.81;;;4.40;100.00
56992;BME280;42885;49.754;18.636;2022-11-20T11:16:51;97761.73;;;4.58;100.00
56992;BME280;42885;49.754;18.636;2022-11-20T11:19:23;97757.27;;;4.81;100.00
56992;BME280;42885;49.754;18.636;2022-11-20T11:21:55;97748.84;;;4.86;100.00
56992;BME280;42885;49.754;18.636;2022-11-20T11:24:28;97750.09;;;4.77;100.00
56992;BME280;42885;49.754;18.636;2022-11-20T11:27:02;97749.66;;;4.67;100.00
56992;BME280;42885;49.754;18.636;2022-11-20T11:29:36;97753.88;;;4.89;100.00
56992;BME280;42885;49.754;18.636;2022-11-20T11:32:11;97757.22;;;4.72;100.00
56992;BME280;42885;49.754;18.636;2022-11-20T11:34:41;97747.62;;;5.13;100.00
56992;BME280;42885;49.754;18.636;2022-11-20T11:37:22;97742.34;;;6.98;100.00
56992;BME280;42885;49.754;18.636;2022-11-20T11:39:49;97741.03;;;6.32;100.00
56992;BME280;42885;49.754;18.636;2022-11-20T11:42:20;97741.64;;;5.84;100.00
56992;BME280;42885;49.754;18.636;2022-11-20T11:44:51;97737.52;;;5.71;100.00
56992;BME280;42885;49.754;18.636;2022-11-20T11:50:25;97737.22;;;5.95;100.00
56992;BME280;42885;49.754;18.636;2022-11-20T11:53:14;97731.48;;;5.62;100.00
56992;BME280;42885;49.754;18.636;2022-11-20T11:58:48;97723.06;;;5.92;100.00
56992;BME280;42885;49.754;18.636;2022-11-20T12:01:38;97704.17;;;6.32;100.00
56992;BME280;42885;49.754;18.636;2022-11-20T12:07:20;97675.58;;;9.60;81.40
56992;BME280;42885;49.754;18.636;2022-11-20T12:09:52;97668.30;;;10.56;64.33
56992;BME280;42885;49.754;18.636;2022-11-20T12:12:29;97666.59;;;11.29;60.79
56992;BME280;42885;49.754;18.636;2022-11-20T12:15:00;97651.34;;;13.13;55.59
56992;BME280;42885;49.754;18.636;2022-11-20T12:17:32;97653.09;;;12.86;54.85
56992;BME280;42885;49.754;18.636;2022-11-20T12:20:05;97651.60;;;13.75;52.38
56992;BME280;42885;49.754;18.636;2022-11-20T12:22:56;97647.22;;;12.99;51.14
56992;BME280;42885;49.754;18.636;2022-11-20T12:25:36;97652.75;;;11.22;59.58
56992;BME280;42885;49.754;18.636;2022-11-20T12:28:11;97663.38;;;9.13;70.38
56992;BME280;42885;49.754;18.636;2022-11-20T12:30:49;97669.15;;;7.96;78.83
56992;BME280;42885;49.754;18.636;2022-11-20T12:33:30;97669.59;;;7.81;80.38
56992;BME280;42885;49.754;18.636;2022-11-20T12:39:01;97671.25;;;7.75;83.33
56992;BME280;42885;49.754;18.636;2022-11-20T12:56:06;97653.22;;;7.18;89.37
56992;BME280;42885;49.754;18.636;2022-11-20T12:59:02;97648.41;;;7.87;87.71
56992;BME280;42885;49.754;18.636;2022-11-20T13:01:48;97639.68;;;8.10;84.42
56992;BME280;42885;49.754;18.636;2022-11-20T13:04:47;97633.33;;;7.99;84.50
56992;BME280;42885;49.754;18.636;2022-11-20T13:07:15;97637.34;;;7.91;85.85
56992;BME280;42885;49.754;18.636;2022-11-20T13:09:48;97633.73;;;7.25;89.01
56992;BME280;42885;49.754;18.636;2022-11-20T13:12:44;97628.98;;;6.94;94.97
56992;BME280;42885;49.754;18.636;2022-11-20T13:15:39;97627.38;;;6.75;98.05
56992;BME280;42885;49.754;18.636;2022-11-20T13:18:10;97624.55;;;6.64;100.00
56992;BME280;42885;49.754;18.636;2022-11-20T13:20:46;97622.95;;;6.61;100.00
56992;BME280;42885;49.754;18.636;2022-11-20T13:23:26;97620.61;;;6.40;100.00
56992;BME280;42885;49.754;18.636;2022-11-20T13:26:17;97622.67;;;6.33;100.00
56992;BME280;42885;49.754;18.636;2022-11-20T13:28:36;97617.23;;;6.38;100.00
56992;BME280;42885;49.754;18.636;2022-11-20T13:31:46;97612.28;;;6.33;100.00
56992;BME280;42885;49.754;18.636;2022-11-20T13:33:51;97616.92;;;6.19;100.00
56992;BME280;42885;49.754;18.636;2022-11-20T13:36:25;97612.20;;;6.01;100.00
56992;BME280;42885;49.754;18.636;2022-11-20T13:38:57;97613.47;;;5.94;100.00
56992;BME280;42885;49.754;18.636;2022-11-20T13:41:33;97601.98;;;5.98;100.00
56992;BME280;42885;49.754;18.636;2022-11-20T13:46:45;97608.72;;;5.93;100.00
56992;BME280;42885;49.754;18.636;2022-11-20T13:49:39;97599.42;;;5.89;100.00
56992;BME280;42885;49.754;18.636;2022-11-20T13:55:44;97624.30;;;5.85;100.00
56992;BME280;42885;49.754;18.636;2022-11-20T13:58:22;97622.52;;;5.69;100.00
56992;BME280;42885;49.754;18.636;2022-11-20T14:01:07;97616.23;;;5.73;100.00
56992;BME280;42885;49.754;18.636;2022-11-20T14:03:32;97614.32;;;5.86;100.00
56992;BME280;42885;49.754;18.636;2022-11-20T14:06:11;97614.94;;;5.73;100.00